Westport, Indiana
Current Conditions -  °F | °C
As of 3:32 PM on Thursday 29 Jan 2015 (Local Time) from KIMS Reporting Station
Overcast Overcast  
Wind Chill: 28°   Ceiling: 1200
Heat Index: 37°   Visibility: 7mi
Dew Point: 32°   Wind: 17mph
Humidity: 81%   Direction: 270°W
Pressure: 30.01"   Gusts: 23mph
Location:  39.18°N, 85.57°W
Report Text: KIMS 292032Z AUTO 27015G20KT 7SM OVC012 03/00 A3001 RMK AO1
Loading
Personal Weather Stations






























Interactive Weather Map New forecast layout! Learn more

10-Day Weather Forecast

Advertisements
Track Severe Weather on mobile